sensor_id;sensor_type;location;lat;lon;timestamp;P1;durP1;ratioP1;P2;durP2;ratioP2
16480;SDS011;44634;54.110;12.138;2023-04-25T00:00:23;3.47;;;3.20;;
16480;SDS011;44634;54.110;12.138;2023-04-25T00:02:51;3.90;;;3.37;;
16480;SDS011;44634;54.110;12.138;2023-04-25T00:05:19;3.80;;;3.43;;
16480;SDS011;44634;54.110;12.138;2023-04-25T00:07:49;3.87;;;3.53;;
16480;SDS011;44634;54.110;12.138;2023-04-25T00:10:17;3.47;;;3.17;;
16480;SDS011;44634;54.110;12.138;2023-04-25T00:12:45;3.67;;;3.37;;
16480;SDS011;44634;54.110;12.138;2023-04-25T00:15:14;3.40;;;3.20;;
16480;SDS011;44634;54.110;12.138;2023-04-25T00:17:43;3.90;;;3.43;;
16480;SDS011;44634;54.110;12.138;2023-04-25T00:20:12;4.40;;;3.37;;
16480;SDS011;44634;54.110;12.138;2023-04-25T00:22:40;4.27;;;2.77;;
16480;SDS011;44634;54.110;12.138;2023-04-25T00:25:08;3.13;;;2.83;;
16480;SDS011;44634;54.110;12.138;2023-04-25T00:27:36;3.07;;;2.73;;
16480;SDS011;44634;54.110;12.138;2023-04-25T00:30:05;3.60;;;3.30;;
16480;SDS011;44634;54.110;12.138;2023-04-25T00:32:34;3.30;;;3.10;;
16480;SDS011;44634;54.110;12.138;2023-04-25T00:35:03;3.00;;;2.80;;
16480;SDS011;44634;54.110;12.138;2023-04-25T00:37:32;2.53;;;2.33;;
16480;SDS011;44634;54.110;12.138;2023-04-25T00:39:59;3.90;;;3.50;;
16480;SDS011;44634;54.110;12.138;2023-04-25T00:42:27;3.73;;;3.17;;
16480;SDS011;44634;54.110;12.138;2023-04-25T00:44:56;4.13;;;3.77;;
16480;SDS011;44634;54.110;12.138;2023-04-25T00:47:25;3.27;;;3.07;;
16480;SDS011;44634;54.110;12.138;2023-04-25T00:49:53;4.83;;;3.37;;
16480;SDS011;44634;54.110;12.138;2023-04-25T00:52:22;3.50;;;3.30;;
16480;SDS011;44634;54.110;12.138;2023-04-25T00:54:51;3.77;;;3.53;;
16480;SDS011;44634;54.110;12.138;2023-04-25T00:57:18;4.77;;;4.30;;
16480;SDS011;44634;54.110;12.138;2023-04-25T00:59:46;5.07;;;4.00;;
16480;SDS011;44634;54.110;12.138;2023-04-25T01:02:15;5.83;;;4.60;;
16480;SDS011;44634;54.110;12.138;2023-04-25T01:04:43;3.77;;;3.47;;
16480;SDS011;44634;54.110;12.138;2023-04-25T01:07:11;4.43;;;3.83;;
16480;SDS011;44634;54.110;12.138;2023-04-25T01:09:41;5.97;;;4.53;;
16480;SDS011;44634;54.110;12.138;2023-04-25T01:12:08;5.47;;;4.00;;
16480;SDS011;44634;54.110;12.138;2023-04-25T01:14:36;6.70;;;4.70;;
16480;SDS011;44634;54.110;12.138;2023-04-25T01:17:04;4.30;;;3.40;;
16480;SDS011;44634;54.110;12.138;2023-04-25T01:19:34;4.23;;;3.87;;
16480;SDS011;44634;54.110;12.138;2023-04-25T01:22:03;7.83;;;3.53;;
16480;SDS011;44634;54.110;12.138;2023-04-25T01:24:31;5.13;;;3.83;;
16480;SDS011;44634;54.110;12.138;2023-04-25T01:26:59;6.30;;;3.80;;
16480;SDS011;44634;54.110;12.138;2023-04-25T01:29:28;8.43;;;3.50;;
16480;SDS011;44634;54.110;12.138;2023-04-25T01:31:57;7.47;;;3.80;;
16480;SDS011;44634;54.110;12.138;2023-04-25T01:34:25;6.07;;;4.17;;
16480;SDS011;44634;54.110;12.138;2023-04-25T01:36:53;3.47;;;3.13;;
16480;SDS011;44634;54.110;12.138;2023-04-25T01:39:22;4.47;;;3.40;;
16480;SDS011;44634;54.110;12.138;2023-04-25T01:41:51;7.10;;;3.63;;
16480;SDS011;44634;54.110;12.138;2023-04-25T01:44:18;4.53;;;3.50;;
16480;SDS011;44634;54.110;12.138;2023-04-25T01:46:46;7.87;;;3.23;;
16480;SDS011;44634;54.110;12.138;2023-04-25T01:49:14;4.50;;;3.70;;
16480;SDS011;44634;54.110;12.138;2023-04-25T01:51:42;4.50;;;3.40;;
16480;SDS011;44634;54.110;12.138;2023-04-25T01:54:10;3.47;;;3.20;;
16480;SDS011;44634;54.110;12.138;2023-04-25T01:56:39;6.17;;;3.40;;
16480;SDS011;44634;54.110;12.138;2023-04-25T01:59:07;5.30;;;3.73;;
16480;SDS011;44634;54.110;12.138;2023-04-25T02:01:35;8.00;;;4.17;;
16480;SDS011;44634;54.110;12.138;2023-04-25T02:04:03;5.90;;;3.13;;
16480;SDS011;44634;54.110;12.138;2023-04-25T02:06:31;4.93;;;2.80;;
16480;SDS011;44634;54.110;12.138;2023-04-25T02:08:59;5.10;;;3.20;;
16480;SDS011;44634;54.110;12.138;2023-04-25T02:11:27;4.90;;;2.97;;
16480;SDS011;44634;54.110;12.138;2023-04-25T02:13:56;5.73;;;3.30;;
16480;SDS011;44634;54.110;12.138;2023-04-25T02:16:23;4.80;;;3.30;;
16480;SDS011;44634;54.110;12.138;2023-04-25T02:18:51;3.53;;;3.23;;
16480;SDS011;44634;54.110;12.138;2023-04-25T02:21:20;6.73;;;4.00;;
16480;SDS011;44634;54.110;12.138;2023-04-25T02:23:47;5.73;;;3.20;;
16480;SDS011;44634;54.110;12.138;2023-04-25T02:26:18;5.80;;;2.93;;
16480;SDS011;44634;54.110;12.138;2023-04-25T02:28:47;4.00;;;3.03;;
16480;SDS011;44634;54.110;12.138;2023-04-25T02:31:19;7.70;;;2.97;;
16480;SDS011;44634;54.110;12.138;2023-04-25T02:33:47;6.17;;;2.20;;
16480;SDS011;44634;54.110;12.138;2023-04-25T02:36:15;5.97;;;2.57;;
16480;SDS011;44634;54.110;12.138;2023-04-25T02:38:43;8.47;;;2.80;;
16480;SDS011;44634;54.110;12.138;2023-04-25T02:41:11;6.10;;;2.37;;
16480;SDS011;44634;54.110;12.138;2023-04-25T02:43:38;4.33;;;2.57;;
16480;SDS011;44634;54.110;12.138;2023-04-25T02:46:06;5.33;;;2.67;;
16480;SDS011;44634;54.110;12.138;2023-04-25T02:48:36;4.63;;;2.10;;
16480;SDS011;44634;54.110;12.138;2023-04-25T02:51:04;4.90;;;2.80;;
16480;SDS011;44634;54.110;12.138;2023-04-25T02:53:32;5.03;;;2.53;;
16480;SDS011;44634;54.110;12.138;2023-04-25T02:55:59;3.47;;;2.43;;
16480;SDS011;44634;54.110;12.138;2023-04-25T02:58:27;7.90;;;3.00;;
16480;SDS011;44634;54.110;12.138;2023-04-25T03:00:55;10.20;;;2.63;;
16480;SDS011;44634;54.110;12.138;2023-04-25T03:03:23;7.80;;;2.57;;
16480;SDS011;44634;54.110;12.138;2023-04-25T03:05:52;5.63;;;2.87;;
16480;SDS011;44634;54.110;12.138;2023-04-25T03:08:20;3.83;;;2.40;;
16480;SDS011;44634;54.110;12.138;2023-04-25T03:10:48;5.30;;;2.50;;
16480;SDS011;44634;54.110;12.138;2023-04-25T03:13:18;7.33;;;3.43;;
16480;SDS011;44634;54.110;12.138;2023-04-25T03:15:46;4.73;;;2.27;;
16480;SDS011;44634;54.110;12.138;2023-04-25T03:18:13;9.60;;;2.47;;
16480;SDS011;44634;54.110;12.138;2023-04-25T03:20:41;11.30;;;2.50;;
16480;SDS011;44634;54.110;12.138;2023-04-25T03:23:11;5.73;;;1.93;;
16480;SDS011;44634;54.110;12.138;2023-04-25T03:25:38;7.77;;;2.57;;
16480;SDS011;44634;54.110;12.138;2023-04-25T03:28:06;5.57;;;2.50;;
16480;SDS011;44634;54.110;12.138;2023-04-25T03:30:34;7.77;;;3.40;;
16480;SDS011;44634;54.110;12.138;2023-04-25T03:33:02;5.47;;;2.40;;
16480;SDS011;44634;54.110;12.138;2023-04-25T03:35:30;8.57;;;2.57;;
16480;SDS011;44634;54.110;12.138;2023-04-25T03:37:58;3.67;;;2.53;;
16480;SDS011;44634;54.110;12.138;2023-04-25T03:40:27;4.33;;;2.27;;
16480;SDS011;44634;54.110;12.138;2023-04-25T03:42:54;5.60;;;2.47;;
16480;SDS011;44634;54.110;12.138;2023-04-25T03:45:22;8.00;;;3.60;;
16480;SDS011;44634;54.110;12.138;2023-04-25T03:47:50;9.03;;;4.57;;
16480;SDS011;44634;54.110;12.138;2023-04-25T03:50:18;8.17;;;2.57;;
16480;SDS011;44634;54.110;12.138;2023-04-25T03:52:45;8.67;;;2.97;;
16480;SDS011;44634;54.110;12.138;2023-04-25T03:55:13;9.37;;;2.50;;
16480;SDS011;44634;54.110;12.138;2023-04-25T03:57:42;7.20;;;2.37;;
16480;SDS011;44634;54.110;12.138;2023-04-25T04:00:11;10.23;;;3.07;;
16480;SDS011;44634;54.110;12.138;2023-04-25T04:02:39;6.10;;;2.60;;
16480;SDS011;44634;54.110;12.138;2023-04-25T04:05:10;7.30;;;3.00;;
16480;SDS011;44634;54.110;12.138;2023-04-25T04:07:38;4.83;;;2.83;;
16480;SDS011;44634;54.110;12.138;2023-04-25T04:10:09;10.67;;;2.70;;
16480;SDS011;44634;54.110;12.138;2023-04-25T04:12:37;6.43;;;2.23;;
16480;SDS011;44634;54.110;12.138;2023-04-25T04:15:09;2.73;;;1.87;;
16480;SDS011;44634;54.110;12.138;2023-04-25T04:17:38;11.07;;;3.53;;
16480;SDS011;44634;54.110;12.138;2023-04-25T04:20:07;3.77;;;2.10;;
16480;SDS011;44634;54.110;12.138;2023-04-25T04:22:35;9.33;;;2.57;;
16480;SDS011;44634;54.110;12.138;2023-04-25T04:25:04;7.80;;;2.87;;
16480;SDS011;44634;54.110;12.138;2023-04-25T04:27:33;5.83;;;2.10;;
16480;SDS011;44634;54.110;12.138;2023-04-25T04:30:00;9.17;;;2.60;;
16480;SDS011;44634;54.110;12.138;2023-04-25T04:32:30;7.00;;;2.43;;
16480;SDS011;44634;54.110;12.138;2023-04-25T04:34:59;8.97;;;2.87;;
16480;SDS011;44634;54.110;12.138;2023-04-25T04:37:28;8.13;;;2.93;;
16480;SDS011;44634;54.110;12.138;2023-04-25T04:39:56;9.97;;;3.10;;
16480;SDS011;44634;54.110;12.138;2023-04-25T04:42:23;4.77;;;2.27;;
16480;SDS011;44634;54.110;12.138;2023-04-25T04:44:51;8.13;;;2.97;;
16480;SDS011;44634;54.110;12.138;2023-04-25T04:47:21;9.50;;;2.80;;
16480;SDS011;44634;54.110;12.138;2023-04-25T04:49:51;6.90;;;2.60;;
16480;SDS011;44634;54.110;12.138;2023-04-25T04:52:19;4.53;;;2.50;;
16480;SDS011;44634;54.110;12.138;2023-04-25T04:54:46;5.90;;;2.10;;
16480;SDS011;44634;54.110;12.138;2023-04-25T04:57:14;6.60;;;2.27;;
16480;SDS011;44634;54.110;12.138;2023-04-25T04:59:42;6.47;;;2.37;;
16480;SDS011;44634;54.110;12.138;2023-04-25T05:02:10;7.73;;;2.60;;
16480;SDS011;44634;54.110;12.138;2023-04-25T05:04:38;7.17;;;3.03;;
16480;SDS011;44634;54.110;12.138;2023-04-25T05:07:08;5.67;;;2.40;;
16480;SDS011;44634;54.110;12.138;2023-04-25T05:09:36;7.30;;;2.37;;
16480;SDS011;44634;54.110;12.138;2023-04-25T05:12:04;11.60;;;2.77;;
16480;SDS011;44634;54.110;12.138;2023-04-25T05:14:32;12.63;;;3.23;;
16480;SDS011;44634;54.110;12.138;2023-04-25T05:16:59;7.97;;;2.47;;
16480;SDS011;44634;54.110;12.138;2023-04-25T05:19:28;9.97;;;2.30;;
16480;SDS011;44634;54.110;12.138;2023-04-25T05:21:55;7.63;;;2.87;;
16480;SDS011;44634;54.110;12.138;2023-04-25T05:24:25;9.90;;;3.00;;
16480;SDS011;44634;54.110;12.138;2023-04-25T05:26:52;11.60;;;2.57;;
16480;SDS011;44634;54.110;12.138;2023-04-25T05:29:20;6.97;;;2.80;;
16480;SDS011;44634;54.110;12.138;2023-04-25T05:31:48;4.57;;;2.47;;
16480;SDS011;44634;54.110;12.138;2023-04-25T05:34:16;6.37;;;2.87;;
16480;SDS011;44634;54.110;12.138;2023-04-25T05:36:44;9.50;;;3.00;;
16480;SDS011;44634;54.110;12.138;2023-04-25T05:39:14;13.20;;;3.30;;
16480;SDS011;44634;54.110;12.138;2023-04-25T05:41:43;9.03;;;3.17;;
16480;SDS011;44634;54.110;12.138;2023-04-25T05:44:11;7.87;;;2.40;;
16480;SDS011;44634;54.110;12.138;2023-04-25T05:46:39;14.60;;;2.63;;
16480;SDS011;44634;54.110;12.138;2023-04-25T05:49:07;9.10;;;2.00;;
16480;SDS011;44634;54.110;12.138;2023-04-25T05:51:34;8.07;;;2.73;;
16480;SDS011;44634;54.110;12.138;2023-04-25T05:54:02;8.13;;;2.73;;
16480;SDS011;44634;54.110;12.138;2023-04-25T05:56:30;11.50;;;3.20;;
16480;SDS011;44634;54.110;12.138;2023-04-25T05:58:59;11.80;;;3.23;;
16480;SDS011;44634;54.110;12.138;2023-04-25T06:01:27;6.37;;;1.70;;
16480;SDS011;44634;54.110;12.138;2023-04-25T06:03:55;10.90;;;3.30;;
16480;SDS011;44634;54.110;12.138;2023-04-25T06:06:23;9.63;;;3.13;;
16480;SDS011;44634;54.110;12.138;2023-04-25T06:08:53;9.93;;;3.10;;
16480;SDS011;44634;54.110;12.138;2023-04-25T06:11:20;10.77;;;2.43;;
16480;SDS011;44634;54.110;12.138;2023-04-25T06:13:48;10.50;;;3.00;;
16480;SDS011;44634;54.110;12.138;2023-04-25T06:16:18;8.13;;;2.27;;
16480;SDS011;44634;54.110;12.138;2023-04-25T06:18:46;10.83;;;3.13;;
16480;SDS011;44634;54.110;12.138;2023-04-25T06:21:14;6.87;;;2.67;;
16480;SDS011;44634;54.110;12.138;2023-04-25T06:23:42;6.57;;;2.97;;
16480;SDS011;44634;54.110;12.138;2023-04-25T06:26:10;8.73;;;2.50;;
16480;SDS011;44634;54.110;12.138;2023-04-25T06:28:37;9.40;;;2.70;;
16480;SDS011;44634;54.110;12.138;2023-04-25T06:31:05;12.03;;;2.77;;
16480;SDS011;44634;54.110;12.138;2023-04-25T06:33:35;10.13;;;2.40;;
16480;SDS011;44634;54.110;12.138;2023-04-25T06:36:02;11.43;;;2.97;;
16480;SDS011;44634;54.110;12.138;2023-04-25T06:38:31;6.27;;;2.13;;
16480;SDS011;44634;54.110;12.138;2023-04-25T06:40:58;4.27;;;2.17;;
16480;SDS011;44634;54.110;12.138;2023-04-25T06:43:26;15.93;;;3.17;;
16480;SDS011;44634;54.110;12.138;2023-04-25T06:45:54;11.33;;;2.23;;
16480;SDS011;44634;54.110;12.138;2023-04-25T06:48:22;4.17;;;2.40;;
16480;SDS011;44634;54.110;12.138;2023-04-25T06:50:51;5.20;;;2.97;;
16480;SDS011;44634;54.110;12.138;2023-04-25T06:53:19;6.37;;;3.40;;
16480;SDS011;44634;54.110;12.138;2023-04-25T06:55:46;8.27;;;2.90;;
16480;SDS011;44634;54.110;12.138;2023-04-25T06:58:14;7.00;;;3.00;;
16480;SDS011;44634;54.110;12.138;2023-04-25T07:00:42;6.67;;;2.80;;
16480;SDS011;44634;54.110;12.138;2023-04-25T07:03:10;10.00;;;2.97;;
16480;SDS011;44634;54.110;12.138;2023-04-25T07:05:38;9.47;;;3.87;;
16480;SDS011;44634;54.110;12.138;2023-04-25T07:08:07;11.13;;;3.07;;
16480;SDS011;44634;54.110;12.138;2023-04-25T07:10:35;10.70;;;2.70;;
16480;SDS011;44634;54.110;12.138;2023-04-25T07:13:02;5.20;;;2.33;;
16480;SDS011;44634;54.110;12.138;2023-04-25T07:15:30;5.23;;;2.00;;
16480;SDS011;44634;54.110;12.138;2023-04-25T07:17:58;4.87;;;1.80;;
16480;SDS011;44634;54.110;12.138;2023-04-25T07:20:26;7.00;;;2.27;;
16480;SDS011;44634;54.110;12.138;2023-04-25T07:22:54;6.40;;;2.30;;
16480;SDS011;44634;54.110;12.138;2023-04-25T07:25:23;16.23;;;2.50;;
16480;SDS011;44634;54.110;12.138;2023-04-25T07:27:51;6.30;;;2.60;;
16480;SDS011;44634;54.110;12.138;2023-04-25T07:30:18;10.37;;;2.67;;
16480;SDS011;44634;54.110;12.138;2023-04-25T07:32:46;7.37;;;2.37;;
16480;SDS011;44634;54.110;12.138;2023-04-25T07:35:14;4.80;;;1.80;;
16480;SDS011;44634;54.110;12.138;2023-04-25T07:37:43;6.90;;;2.50;;
16480;SDS011;44634;54.110;12.138;2023-04-25T07:40:11;3.00;;;1.40;;
16480;SDS011;44634;54.110;12.138;2023-04-25T07:42:40;5.57;;;1.70;;
16480;SDS011;44634;54.110;12.138;2023-04-25T07:45:08;4.00;;;1.77;;
16480;SDS011;44634;54.110;12.138;2023-04-25T07:47:37;7.13;;;2.93;;
16480;SDS011;44634;54.110;12.138;2023-04-25T07:50:06;4.93;;;2.17;;
16480;SDS011;44634;54.110;12.138;2023-04-25T07:52:34;10.13;;;2.50;;
16480;SDS011;44634;54.110;12.138;2023-04-25T07:55:02;6.83;;;2.10;;
16480;SDS011;44634;54.110;12.138;2023-04-25T07:57:30;9.10;;;2.30;;
16480;SDS011;44634;54.110;12.138;2023-04-25T07:59:59;6.37;;;2.20;;
16480;SDS011;44634;54.110;12.138;2023-04-25T08:02:27;5.87;;;2.00;;
16480;SDS011;44634;54.110;12.138;2023-04-25T08:04:55;6.97;;;2.30;;
16480;SDS011;44634;54.110;12.138;2023-04-25T08:07:23;5.67;;;1.87;;
16480;SDS011;44634;54.110;12.138;2023-04-25T08:09:51;5.03;;;1.90;;
16480;SDS011;44634;54.110;12.138;2023-04-25T08:12:19;3.83;;;2.03;;
16480;SDS011;44634;54.110;12.138;2023-04-25T08:14:48;8.33;;;2.67;;
16480;SDS011;44634;54.110;12.138;2023-04-25T08:17:17;7.00;;;1.90;;
16480;SDS011;44634;54.110;12.138;2023-04-25T08:19:45;4.87;;;2.67;;
16480;SDS011;44634;54.110;12.138;2023-04-25T08:22:13;4.70;;;2.07;;
16480;SDS011;44634;54.110;12.138;2023-04-25T08:24:41;4.57;;;1.73;;
16480;SDS011;44634;54.110;12.138;2023-04-25T08:27:08;8.33;;;2.20;;
16480;SDS011;44634;54.110;12.138;2023-04-25T08:29:37;5.20;;;1.67;;
16480;SDS011;44634;54.110;12.138;2023-04-25T08:32:05;7.93;;;2.57;;
16480;SDS011;44634;54.110;12.138;2023-04-25T08:34:34;9.20;;;2.53;;
16480;SDS011;44634;54.110;12.138;2023-04-25T08:37:03;5.50;;;2.30;;
16480;SDS011;44634;54.110;12.138;2023-04-25T08:39:31;5.90;;;2.50;;
16480;SDS011;44634;54.110;12.138;2023-04-25T08:41:59;7.17;;;2.97;;
16480;SDS011;44634;54.110;12.138;2023-04-25T08:44:29;6.13;;;2.03;;
16480;SDS011;44634;54.110;12.138;2023-04-25T08:46:58;5.83;;;2.17;;
16480;SDS011;44634;54.110;12.138;2023-04-25T08:49:26;2.80;;;2.10;;
16480;SDS011;44634;54.110;12.138;2023-04-25T08:51:55;4.57;;;1.47;;
16480;SDS011;44634;54.110;12.138;2023-04-25T08:54:27;4.90;;;2.13;;
16480;SDS011;44634;54.110;12.138;2023-04-25T08:57:01;2.67;;;1.47;;
16480;SDS011;44634;54.110;12.138;2023-04-25T08:59:31;7.63;;;2.40;;
16480;SDS011;44634;54.110;12.138;2023-04-25T09:02:01;5.50;;;2.20;;
16480;SDS011;44634;54.110;12.138;2023-04-25T09:04:30;4.77;;;2.23;;
16480;SDS011;44634;54.110;12.138;2023-04-25T09:06:59;4.00;;;2.00;;
16480;SDS011;44634;54.110;12.138;2023-04-25T09:09:27;2.27;;;1.90;;
16480;SDS011;44634;54.110;12.138;2023-04-25T09:11:56;8.33;;;2.53;;
16480;SDS011;44634;54.110;12.138;2023-04-25T09:14:25;6.67;;;2.33;;
16480;SDS011;44634;54.110;12.138;2023-04-25T09:16:57;2.20;;;1.60;;
16480;SDS011;44634;54.110;12.138;2023-04-25T09:19:27;4.13;;;1.27;;
16480;SDS011;44634;54.110;12.138;2023-04-25T09:22:08;5.83;;;2.27;;
16480;SDS011;44634;54.110;12.138;2023-04-25T09:24:37;5.07;;;1.60;;
16480;SDS011;44634;54.110;12.138;2023-04-25T09:27:07;6.60;;;2.57;;
16480;SDS011;44634;54.110;12.138;2023-04-25T09:29:37;5.03;;;2.00;;
16480;SDS011;44634;54.110;12.138;2023-04-25T09:32:10;3.63;;;1.87;;
16480;SDS011;44634;54.110;12.138;2023-04-25T09:34:40;9.30;;;2.90;;
16480;SDS011;44634;54.110;12.138;2023-04-25T09:37:10;4.23;;;2.00;;
16480;SDS011;44634;54.110;12.138;2023-04-25T09:39:38;7.80;;;2.30;;
16480;SDS011;44634;54.110;12.138;2023-04-25T09:42:07;9.47;;;1.90;;
16480;SDS011;44634;54.110;12.138;2023-04-25T09:44:36;3.33;;;1.80;;
16480;SDS011;44634;54.110;12.138;2023-04-25T09:47:09;9.93;;;3.37;;
16480;SDS011;44634;54.110;12.138;2023-04-25T09:49:39;5.33;;;2.10;;
16480;SDS011;44634;54.110;12.138;2023-04-25T09:52:09;4.97;;;2.03;;
16480;SDS011;44634;54.110;12.138;2023-04-25T09:54:40;5.00;;;2.30;;
16480;SDS011;44634;54.110;12.138;2023-04-25T09:57:12;7.07;;;2.20;;
16480;SDS011;44634;54.110;12.138;2023-04-25T09:59:45;6.67;;;1.70;;
16480;SDS011;44634;54.110;12.138;2023-04-25T10:02:14;3.60;;;2.03;;
16480;SDS011;44634;54.110;12.138;2023-04-25T10:04:47;8.43;;;2.23;;
16480;SDS011;44634;54.110;12.138;2023-04-25T10:07:20;5.13;;;1.83;;
16480;SDS011;44634;54.110;12.138;2023-04-25T10:09:53;7.07;;;2.20;;
16480;SDS011;44634;54.110;12.138;2023-04-25T10:12:25;9.20;;;2.07;;
16480;SDS011;44634;54.110;12.138;2023-04-25T10:14:54;7.07;;;2.07;;
16480;SDS011;44634;54.110;12.138;2023-04-25T10:17:22;5.43;;;2.50;;
16480;SDS011;44634;54.110;12.138;2023-04-25T10:19:50;6.90;;;3.00;;
16480;SDS011;44634;54.110;12.138;2023-04-25T10:22:20;5.60;;;2.43;;
16480;SDS011;44634;54.110;12.138;2023-04-25T10:24:56;6.20;;;2.20;;
16480;SDS011;44634;54.110;12.138;2023-04-25T10:27:26;7.43;;;2.03;;
16480;SDS011;44634;54.110;12.138;2023-04-25T10:30:00;3.73;;;2.00;;
16480;SDS011;44634;54.110;12.138;2023-04-25T10:32:30;7.30;;;2.37;;
16480;SDS011;44634;54.110;12.138;2023-04-25T10:35:04;9.03;;;1.90;;
16480;SDS011;44634;54.110;12.138;2023-04-25T10:37:39;4.07;;;1.73;;
16480;SDS011;44634;54.110;12.138;2023-04-25T10:40:23;5.67;;;1.83;;
16480;SDS011;44634;54.110;12.138;2023-04-25T10:42:51;6.77;;;1.87;;
16480;SDS011;44634;54.110;12.138;2023-04-25T10:45:19;4.17;;;1.63;;
16480;SDS011;44634;54.110;12.138;2023-04-25T10:47:47;7.63;;;1.97;;
16480;SDS011;44634;54.110;12.138;2023-04-25T10:50:15;4.00;;;1.80;;
16480;SDS011;44634;54.110;12.138;2023-04-25T10:52:44;5.57;;;1.87;;
16480;SDS011;44634;54.110;12.138;2023-04-25T10:55:12;4.07;;;2.23;;
16480;SDS011;44634;54.110;12.138;2023-04-25T10:57:40;5.80;;;1.73;;
16480;SDS011;44634;54.110;12.138;2023-04-25T11:00:13;8.03;;;2.10;;
16480;SDS011;44634;54.110;12.138;2023-04-25T11:02:43;4.10;;;1.80;;
16480;SDS011;44634;54.110;12.138;2023-04-25T11:05:19;3.10;;;1.60;;
16480;SDS011;44634;54.110;12.138;2023-04-25T11:07:51;5.60;;;1.87;;
16480;SDS011;44634;54.110;12.138;2023-04-25T11:10:33;3.33;;;2.03;;
16480;SDS011;44634;54.110;12.138;2023-04-25T11:13:02;4.60;;;1.03;;
16480;SDS011;44634;54.110;12.138;2023-04-25T11:15:31;6.37;;;2.57;;
16480;SDS011;44634;54.110;12.138;2023-04-25T11:17:58;2.07;;;1.33;;
16480;SDS011;44634;54.110;12.138;2023-04-25T11:20:27;1.83;;;1.50;;
16480;SDS011;44634;54.110;12.138;2023-04-25T11:22:58;3.77;;;1.20;;
16480;SDS011;44634;54.110;12.138;2023-04-25T11:25:26;6.20;;;2.30;;
16480;SDS011;44634;54.110;12.138;2023-04-25T11:27:56;2.70;;;1.70;;
16480;SDS011;44634;54.110;12.138;2023-04-25T11:30:26;5.03;;;1.80;;
16480;SDS011;44634;54.110;12.138;2023-04-25T11:32:54;6.10;;;1.90;;
16480;SDS011;44634;54.110;12.138;2023-04-25T11:35:22;7.63;;;2.20;;
16480;SDS011;44634;54.110;12.138;2023-04-25T11:37:52;3.27;;;1.40;;
16480;SDS011;44634;54.110;12.138;2023-04-25T11:40:21;2.27;;;1.70;;
16480;SDS011;44634;54.110;12.138;2023-04-25T11:42:49;4.47;;;1.97;;
16480;SDS011;44634;54.110;12.138;2023-04-25T11:45:20;2.83;;;1.87;;
16480;SDS011;44634;54.110;12.138;2023-04-25T11:47:48;2.83;;;1.30;;
16480;SDS011;44634;54.110;12.138;2023-04-25T11:50:16;6.17;;;2.30;;
16480;SDS011;44634;54.110;12.138;2023-04-25T11:52:44;6.17;;;2.00;;
16480;SDS011;44634;54.110;12.138;2023-04-25T11:55:14;4.37;;;1.67;;
16480;SDS011;44634;54.110;12.138;2023-04-25T11:57:45;5.17;;;1.70;;
16480;SDS011;44634;54.110;12.138;2023-04-25T12:00:15;9.90;;;1.93;;
16480;SDS011;44634;54.110;12.138;2023-04-25T12:02:45;5.30;;;1.50;;
16480;SDS011;44634;54.110;12.138;2023-04-25T12:05:14;2.50;;;1.50;;
16480;SDS011;44634;54.110;12.138;2023-04-25T12:07:57;4.13;;;1.67;;
16480;SDS011;44634;54.110;12.138;2023-04-25T12:10:25;4.57;;;1.80;;
16480;SDS011;44634;54.110;12.138;2023-04-25T12:12:54;4.53;;;1.60;;
16480;SDS011;44634;54.110;12.138;2023-04-25T12:15:23;6.67;;;1.93;;
16480;SDS011;44634;54.110;12.138;2023-04-25T12:17:52;4.03;;;1.80;;
16480;SDS011;44634;54.110;12.138;2023-04-25T12:20:23;5.00;;;1.77;;
16480;SDS011;44634;54.110;12.138;2023-04-25T12:22:52;9.40;;;2.17;;
16480;SDS011;44634;54.110;12.138;2023-04-25T12:25:36;8.20;;;2.37;;
16480;SDS011;44634;54.110;12.138;2023-04-25T12:28:13;7.70;;;1.73;;
16480;SDS011;44634;54.110;12.138;2023-04-25T12:30:54;4.97;;;1.70;;
16480;SDS011;44634;54.110;12.138;2023-04-25T12:33:24;6.57;;;1.53;;
16480;SDS011;44634;54.110;12.138;2023-04-25T12:35:53;6.63;;;3.07;;
16480;SDS011;44634;54.110;12.138;2023-04-25T12:38:24;7.10;;;2.10;;
16480;SDS011;44634;54.110;12.138;2023-04-25T12:40:53;3.97;;;1.37;;
16480;SDS011;44634;54.110;12.138;2023-04-25T12:43:23;4.47;;;1.77;;
16480;SDS011;44634;54.110;12.138;2023-04-25T12:45:51;4.03;;;1.80;;
16480;SDS011;44634;54.110;12.138;2023-04-25T12:48:20;7.97;;;1.83;;
16480;SDS011;44634;54.110;12.138;2023-04-25T12:50:49;3.63;;;2.27;;
16480;SDS011;44634;54.110;12.138;2023-04-25T12:53:18;6.70;;;1.73;;
16480;SDS011;44634;54.110;12.138;2023-04-25T12:55:47;4.73;;;2.03;;
16480;SDS011;44634;54.110;12.138;2023-04-25T12:58:16;3.33;;;1.47;;
16480;SDS011;44634;54.110;12.138;2023-04-25T13:00:46;2.47;;;1.67;;
16480;SDS011;44634;54.110;12.138;2023-04-25T13:03:15;2.90;;;1.80;;
16480;SDS011;44634;54.110;12.138;2023-04-25T13:05:43;4.30;;;1.30;;
16480;SDS011;44634;54.110;12.138;2023-04-25T13:08:11;4.27;;;1.80;;
16480;SDS011;44634;54.110;12.138;2023-04-25T13:10:38;10.17;;;2.60;;
16480;SDS011;44634;54.110;12.138;2023-04-25T13:13:06;2.80;;;1.57;;
16480;SDS011;44634;54.110;12.138;2023-04-25T13:15:34;7.13;;;1.63;;
16480;SDS011;44634;54.110;12.138;2023-04-25T13:18:04;5.77;;;1.33;;
16480;SDS011;44634;54.110;12.138;2023-04-25T13:20:33;5.77;;;2.00;;
16480;SDS011;44634;54.110;12.138;2023-04-25T13:23:00;3.83;;;1.67;;
16480;SDS011;44634;54.110;12.138;2023-04-25T13:25:28;4.50;;;1.80;;
16480;SDS011;44634;54.110;12.138;2023-04-25T13:27:56;5.37;;;2.13;;
16480;SDS011;44634;54.110;12.138;2023-04-25T13:30:24;2.70;;;1.23;;
16480;SDS011;44634;54.110;12.138;2023-04-25T13:32:52;3.07;;;1.33;;
16480;SDS011;44634;54.110;12.138;2023-04-25T13:35:24;2.53;;;1.50;;
16480;SDS011;44634;54.110;12.138;2023-04-25T13:37:52;4.60;;;1.60;;
16480;SDS011;44634;54.110;12.138;2023-04-25T13:40:19;5.03;;;1.43;;
16480;SDS011;44634;54.110;12.138;2023-04-25T13:42:50;5.40;;;1.83;;
16480;SDS011;44634;54.110;12.138;2023-04-25T13:45:18;5.80;;;1.60;;
16480;SDS011;44634;54.110;12.138;2023-04-25T13:47:46;6.30;;;1.57;;
16480;SDS011;44634;54.110;12.138;2023-04-25T13:50:14;3.87;;;1.50;;
16480;SDS011;44634;54.110;12.138;2023-04-25T13:52:43;12.83;;;1.67;;
16480;SDS011;44634;54.110;12.138;2023-04-25T13:55:11;3.80;;;1.70;;
16480;SDS011;44634;54.110;12.138;2023-04-25T13:57:39;3.87;;;1.67;;
16480;SDS011;44634;54.110;12.138;2023-04-25T14:00:07;5.00;;;2.40;;
16480;SDS011;44634;54.110;12.138;2023-04-25T14:02:36;3.43;;;1.80;;
16480;SDS011;44634;54.110;12.138;2023-04-25T14:05:04;7.53;;;3.83;;
16480;SDS011;44634;54.110;12.138;2023-04-25T14:07:33;6.67;;;2.33;;
16480;SDS011;44634;54.110;12.138;2023-04-25T14:10:03;5.30;;;1.73;;
16480;SDS011;44634;54.110;12.138;2023-04-25T14:12:33;8.67;;;3.40;;
16480;SDS011;44634;54.110;12.138;2023-04-25T14:15:01;5.53;;;2.40;;
16480;SDS011;44634;54.110;12.138;2023-04-25T14:17:29;9.87;;;2.17;;
16480;SDS011;44634;54.110;12.138;2023-04-25T14:19:57;6.80;;;2.00;;
16480;SDS011;44634;54.110;12.138;2023-04-25T14:22:25;5.47;;;1.90;;
16480;SDS011;44634;54.110;12.138;2023-04-25T14:24:53;5.60;;;1.93;;
16480;SDS011;44634;54.110;12.138;2023-04-25T14:27:22;4.27;;;2.40;;
16480;SDS011;44634;54.110;12.138;2023-04-25T14:29:51;6.17;;;2.10;;
16480;SDS011;44634;54.110;12.138;2023-04-25T14:32:19;9.27;;;2.07;;
16480;SDS011;44634;54.110;12.138;2023-04-25T14:34:47;4.33;;;1.50;;
16480;SDS011;44634;54.110;12.138;2023-04-25T14:37:15;2.90;;;1.47;;
16480;SDS011;44634;54.110;12.138;2023-04-25T14:39:43;4.30;;;1.63;;
16480;SDS011;44634;54.110;12.138;2023-04-25T14:42:11;3.87;;;1.60;;